Time;durP1;ratioP1;P1;durP2;ratioP2;P2;SDS_P1;SDS_P2;PMS_P1;PMS_P2;Temp;Humidity;BMP_temperature;BMP_pressure;BME280_temperature;BME280_humidity;BME280_pressure;Samples;Min_cycle;Max_cycle;Signal;HPM_P1;HPM_P2
2023/06/04 00:00:25;;;;;;;4.90;1.37;;;;;;;13.53;53.05;100526.45;1782675;80;21347;-81
2023/06/04 00:03:32;;;;;;;7.78;1.80;;;;;;;13.49;53.24;100526.50;1784867;80;21315;-81
2023/06/04 00:06:38;;;;;;;5.35;1.50;;;;;;;13.40;53.54;100528.16;1783840;80;21310;-80
2023/06/04 00:09:46;;;;;;;10.98;1.80;;;;;;;13.33;53.68;100512.11;1782978;80;21312;-80
2023/06/04 00:12:52;;;;;;;4.15;1.80;;;;;;;13.30;53.73;100529.81;1783523;80;21911;-80
2023/06/04 00:15:58;;;;;;;5.95;1.80;;;;;;;13.32;53.66;100525.00;1784531;80;21295;-80
2023/06/04 00:19:05;;;;;;;4.35;1.32;;;;;;;13.32;53.78;100526.38;1783148;80;21308;-81
2023/06/04 00:22:10;;;;;;;5.40;1.67;;;;;;;13.37;53.74;100528.03;1785058;80;21311;-80
2023/06/04 00:25:17;;;;;;;3.22;1.30;;;;;;;13.44;53.37;100526.21;1784893;80;21354;-80
2023/06/04 00:28:22;;;;;;;2.95;1.40;;;;;;;13.51;53.10;100535.42;1785027;80;21354;-81
2023/06/04 00:31:28;;;;;;;8.68;1.72;;;;;;;13.54;53.00;100539.14;1784504;80;21327;-81
2023/06/04 00:34:34;;;;;;;4.28;1.47;;;;;;;13.52;52.93;100535.74;1784342;80;21357;-80
2023/06/04 00:37:42;;;;;;;4.50;1.30;;;;;;;13.50;53.07;100543.34;1783056;80;21351;-81
2023/06/04 00:40:49;;;;;;;2.40;1.62;;;;;;;13.49;52.97;100539.38;1784888;80;21288;-81
2023/06/04 00:44:01;;;;;;;4.95;1.67;;;;;;;13.33;53.37;100539.59;1783320;80;22596;-80
2023/06/04 00:47:05;;;;;;;20.40;2.17;;;;;;;13.26;53.55;100535.34;1783580;80;21931;-81
2023/06/04 00:50:10;;;;;;;8.08;1.95;;;;;;;13.33;53.58;100536.31;1784720;80;21292;-81
2023/06/04 00:53:16;;;;;;;8.18;1.90;;;;;;;13.15;53.94;100536.64;1784774;80;21950;-80
2023/06/04 00:56:21;;;;;;;4.08;1.92;;;;;;;13.12;54.22;100526.54;1784639;80;21327;-80
2023/06/04 00:59:26;;;;;;;5.50;1.30;;;;;;;13.16;54.35;100530.62;1784933;80;21280;-81
2023/06/04 01:02:33;;;;;;;6.10;1.90;;;;;;;13.06;54.73;100526.78;1782304;80;21204;-80
2023/06/04 01:06:06;;;;;;;4.50;1.62;;;;;;;13.03;54.72;100521.16;1784647;80;21300;-80
2023/06/04 01:09:12;;;;;;;3.30;1.52;;;;;;;13.18;54.49;100524.44;1784655;80;21311;-80
2023/06/04 01:12:17;;;;;;;4.25;1.85;;;;;;;13.10;54.56;100523.14;1784633;80;21323;-81
2023/06/04 01:15:23;;;;;;;7.30;1.47;;;;;;;12.99;54.62;100529.43;1784673;80;21900;-80
2023/06/04 01:18:32;;;;;;;5.50;1.37;;;;;;;13.14;54.27;100526.70;1783685;80;21893;-80
2023/06/04 01:21:39;;;;;;;4.08;1.65;;;;;;;13.07;54.12;100531.22;1784867;80;21280;-81
2023/06/04 01:24:46;;;;;;;4.35;1.57;;;;;;;13.10;53.94;100532.75;1784635;80;21283;-80
2023/06/04 01:27:56;;;;;;;4.58;1.50;;;;;;;13.19;53.58;100531.11;1784358;80;21388;-81
2023/06/04 01:31:04;;;;;;;5.28;1.60;;;;;;;13.20;53.35;100534.70;1784782;80;22507;-80
2023/06/04 01:34:09;;;;;;;7.83;1.77;;;;;;;13.29;53.23;100539.10;1783883;80;21335;-80
2023/06/04 01:37:13;;;;;;;9.45;1.72;;;;;;;13.30;53.01;100544.92;1784700;80;21291;-80
2023/06/04 01:40:19;;;;;;;4.70;1.52;;;;;;;13.35;52.83;100543.83;1784681;80;21862;-80
2023/06/04 01:43:26;;;;;;;3.90;1.45;;;;;;;13.13;53.26;100545.60;1784672;80;21315;-80
2023/06/04 01:46:31;;;;;;;6.95;1.70;;;;;;;13.07;53.62;100546.33;1784821;80;21323;-80
2023/06/04 01:49:40;;;;;;;7.25;1.87;;;;;;;13.08;53.74;100558.16;1783564;80;21334;-81
2023/06/04 01:52:49;;;;;;;5.15;1.50;;;;;;;13.07;53.75;100564.17;1784870;80;21929;-80
2023/06/04 01:55:50;;;;;;;7.33;1.50;;;;;;;13.09;53.83;100566.76;1785090;80;21321;-81
2023/06/04 01:58:43;;;;;;;8.90;1.90;;;;;;;13.09;53.90;100572.25;1783831;80;21335;-80
2023/06/04 02:01:48;;;;;;;8.08;1.30;;;;;;;13.40;53.44;100572.12;1775995;80;21351;-80
2023/06/04 02:04:54;;;;;;;6.40;1.40;;;;;;;13.59;53.03;100580.32;1769878;81;21316;-80
2023/06/04 02:08:01;;;;;;;2.80;1.30;;;;;;;13.91;52.31;100574.95;1769393;80;21796;-80
2023/06/04 02:11:08;;;;;;;3.50;1.40;;;;;;;14.17;51.44;100587.67;1771051;81;21295;-80
2023/06/04 02:14:14;;;;;;;3.42;1.50;;;;;;;14.39;50.87;100583.04;1771037;81;21288;-80
2023/06/04 02:17:20;;;;;;;2.85;1.10;;;;;;;14.45;50.60;100585.56;1770872;81;21288;-80
2023/06/04 02:20:25;;;;;;;4.25;1.50;;;;;;;14.65;50.20;100589.92;1769712;81;21359;-80
2023/06/04 02:23:31;;;;;;;5.95;1.57;;;;;;;14.81;49.64;100600.67;1770918;81;21300;-81
2023/06/04 02:26:36;;;;;;;6.62;1.40;;;;;;;14.96;49.20;100593.20;1770977;81;21324;-81
2023/06/04 02:29:41;;;;;;;5.15;1.85;;;;;;;15.25;48.70;100599.59;1769848;81;21878;-80
2023/06/04 02:32:50;;;;;;;5.45;1.32;;;;;;;15.47;47.85;100597.09;1771161;80;21208;-80
2023/06/04 02:35:55;;;;;;;7.37;1.12;;;;;;;15.85;46.97;100595.34;1771148;81;21894;-80
2023/06/04 02:39:01;;;;;;;4.33;1.40;;;;;;;15.91;46.86;100601.97;1770468;81;21335;-80
2023/06/04 02:42:07;;;;;;;6.20;1.80;;;;;;;16.36;45.68;100612.88;1770981;81;21284;-80
2023/06/04 02:45:15;;;;;;;3.37;1.30;;;;;;;16.31;45.61;100599.69;1770990;81;21327;-80
2023/06/04 02:48:20;;;;;;;7.37;1.77;;;;;;;16.57;45.19;100605.84;1770909;81;21299;-80
2023/06/04 02:51:19;;;;;;;6.20;1.47;;;;;;;16.63;44.86;100607.45;1770949;81;21292;-80
2023/06/04 02:54:24;;;;;;;4.05;1.37;;;;;;;16.89;44.27;100611.68;1770811;81;21304;-80
2023/06/04 02:57:31;;;;;;;7.35;1.45;;;;;;;16.94;43.96;100620.69;1770885;81;21846;-80
2023/06/04 03:00:38;;;;;;;6.22;1.50;;;;;;;16.98;43.73;100614.53;1769377;81;21383;-81
2023/06/04 03:03:45;;;;;;;5.87;1.42;;;;;;;17.24;43.68;100621.16;1782334;80;21394;-81
2023/06/04 03:06:57;;;;;;;3.77;1.30;;;;;;;17.46;43.00;100620.42;1783234;80;21342;-80
2023/06/04 03:10:01;;;;;;;8.90;1.55;;;;;;;17.49;42.47;100618.05;1783657;80;21890;-81
2023/06/04 03:13:08;;;;;;;5.65;1.32;;;;;;;17.27;42.76;100634.03;1784558;80;21299;-81
2023/06/04 03:16:14;;;;;;;6.70;1.42;;;;;;;17.20;43.24;100627.63;1784643;80;21287;-80
2023/06/04 03:19:19;;;;;;;2.45;1.20;;;;;;;17.19;42.88;100644.44;1784449;80;21343;-81
2023/06/04 03:22:24;;;;;;;6.47;1.20;;;;;;;16.92;43.03;100633.87;1784753;80;21303;-81
2023/06/04 03:25:24;;;;;;;4.90;1.20;;;;;;;16.78;44.26;100633.84;1784474;80;21977;-81
2023/06/04 03:28:29;;;;;;;5.12;1.12;;;;;;;16.78;43.96;100620.56;1785522;80;21271;-81
2023/06/04 03:31:37;;;;;;;5.37;1.27;;;;;;;16.90;43.71;100634.09;1784545;80;21334;-82
2023/06/04 03:34:44;;;;;;;2.90;1.00;;;;;;;17.13;43.56;100625.41;1784804;80;21287;-80
2023/06/04 03:37:50;;;;;;;5.65;1.10;;;;;;;17.31;42.88;100635.31;1784688;80;21292;-80
2023/06/04 03:40:57;;;;;;;4.15;1.47;;;;;;;17.43;42.44;100647.95;1783253;80;21311;-80
2023/06/04 03:44:04;;;;;;;14.68;1.32;;;;;;;17.52;42.62;100636.99;1785704;80;21137;-80
2023/06/04 03:47:10;;;;;;;2.55;1.10;;;;;;;17.68;41.97;100643.98;1784673;80;21236;-80
2023/06/04 03:50:17;;;;;;;2.67;1.00;;;;;;;17.81;41.57;100644.00;1784060;80;21288;-80
2023/06/04 03:53:23;;;;;;;3.65;1.10;;;;;;;17.71;41.88;100654.63;1783324;80;21303;-80
2023/06/04 03:56:29;;;;;;;3.10;1.05;;;;;;;17.69;42.22;100646.22;1784117;80;21303;-80
2023/06/04 03:59:39;;;;;;;7.05;1.10;;;;;;;17.73;41.97;100651.14;1784568;80;21319;-80
2023/06/04 04:02:43;;;;;;;6.95;1.47;;;;;;;17.75;41.60;100649.56;1782852;80;22273;-80
2023/06/04 04:05:52;;;;;;;4.87;1.10;;;;;;;17.56;41.69;100654.02;1771481;81;21292;-81
2023/06/04 04:08:59;;;;;;;4.08;1.02;;;;;;;17.37;42.01;100657.95;1771127;81;21315;-80
2023/06/04 04:12:05;;;;;;;4.42;1.12;;;;;;;17.37;42.18;100658.48;1769876;81;21323;-81
2023/06/04 04:15:13;;;;;;;3.33;1.00;;;;;;;17.32;42.67;100642.53;1770974;81;21289;-80
2023/06/04 04:18:19;;;;;;;5.60;1.70;;;;;;;17.31;42.99;100666.22;1769607;81;21340;-80
2023/06/04 04:21:26;;;;;;;1.77;0.85;;;;;;;17.34;41.97;100668.05;1769927;81;21332;-81
2023/06/04 04:24:37;;;;;;;3.37;1.20;;;;;;;17.20;41.57;100679.30;1771037;81;21287;-81
2023/06/04 04:27:43;;;;;;;3.92;1.37;;;;;;;17.13;41.96;100675.70;1771175;81;22594;-80
2023/06/04 04:30:49;;;;;;;6.42;0.98;;;;;;;17.22;41.86;100663.34;1770313;81;21366;-80
2023/06/04 04:33:57;;;;;;;7.00;1.22;;;;;;;17.29;42.05;100657.30;1770965;81;21323;-81
2023/06/04 04:37:04;;;;;;;3.12;1.35;;;;;;;17.33;41.54;100669.64;1770918;81;21907;-81
2023/06/04 04:40:12;;;;;;;2.30;0.80;;;;;;;17.45;41.50;100665.70;1770760;81;21354;-81
2023/06/04 04:43:18;;;;;;;5.67;1.42;;;;;;;17.37;41.40;100668.16;1770892;81;21292;-81
2023/06/04 04:46:26;;;;;;;2.85;1.05;;;;;;;17.41;40.95;100687.42;1770608;81;21328;-81
2023/06/04 04:49:32;;;;;;;2.87;1.20;;;;;;;17.39;40.18;100690.91;1769448;81;21855;-81
2023/06/04 04:52:37;;;;;;;2.58;1.10;;;;;;;17.42;40.66;100690.50;1769557;81;21320;-81
2023/06/04 04:55:42;;;;;;;5.08;1.07;;;;;;;17.45;40.83;100701.11;1771006;81;21284;-81
2023/06/04 04:58:48;;;;;;;3.77;1.10;;;;;;;17.55;40.62;100694.66;1771040;81;21300;-81
2023/06/04 05:01:54;;;;;;;1.57;1.00;;;;;;;17.69;40.00;100696.01;1769512;81;21890;-82
2023/06/04 05:04:59;;;;;;;3.55;1.25;;;;;;;17.81;39.98;100702.64;1770338;81;21307;-80
2023/06/04 05:08:05;;;;;;;2.33;1.02;;;;;;;17.96;38.92;100712.09;1769561;81;21644;-81
2023/06/04 05:11:12;;;;;;;2.40;0.88;;;;;;;17.94;38.77;100722.00;1770483;81;21320;-81
2023/06/04 05:14:18;;;;;;;1.95;0.95;;;;;;;17.79;38.76;100722.77;1770936;81;21300;-81
2023/06/04 05:17:29;;;;;;;2.83;1.22;;;;;;;17.83;38.03;100719.36;1770386;81;21319;-81
2023/06/04 05:20:32;;;;;;;3.67;1.10;;;;;;;17.96;37.77;100724.01;1770993;81;21284;-82
2023/06/04 05:23:38;;;;;;;6.20;1.20;;;;;;;18.06;36.87;100723.03;1769629;81;21291;-81
2023/06/04 05:26:48;;;;;;;2.25;1.17;;;;;;;18.27;37.49;100725.25;1770991;81;21307;-80
2023/06/04 05:29:53;;;;;;;3.55;1.00;;;;;;;18.06;37.35;100740.17;1771021;81;21816;-81
2023/06/04 05:32:59;;;;;;;5.92;1.22;;;;;;;18.03;37.38;100722.64;1770049;81;21324;-80
2023/06/04 05:36:06;;;;;;;4.33;1.02;;;;;;;17.98;37.25;100736.27;1770790;81;21303;-80
2023/06/04 05:39:13;;;;;;;5.75;1.27;;;;;;;17.97;37.51;100730.39;1770937;81;21351;-81
2023/06/04 05:42:24;;;;;;;9.50;1.22;;;;;;;17.95;36.96;100727.84;1769997;81;22654;-80
2023/06/04 05:45:32;;;;;;;5.50;1.07;;;;;;;17.93;37.07;100723.61;1770880;81;21312;-81
2023/06/04 05:48:39;;;;;;;2.95;1.05;;;;;;;17.84;36.82;100727.12;1767387;81;21669;-81
2023/06/04 05:51:44;;;;;;;3.70;1.25;;;;;;;17.84;37.71;100704.99;1770417;81;21831;-81
2023/06/04 05:54:50;;;;;;;14.25;1.17;;;;;;;17.94;37.25;100711.47;1770930;81;21335;-81
2023/06/04 05:57:57;;;;;;;3.08;1.30;;;;;;;18.08;37.41;100700.16;1770965;81;21863;-80
2023/06/04 06:01:03;;;;;;;5.62;1.20;;;;;;;18.27;37.46;100694.79;1770260;81;21331;-80
2023/06/04 06:04:01;;;;;;;1.72;0.90;;;;;;;18.52;36.82;100693.52;1771119;81;21340;-81
2023/06/04 06:07:02;;;;;;;6.17;1.10;;;;;;;18.71;37.24;100701.47;1770477;80;21654;-80
2023/06/04 06:10:08;;;;;;;3.10;0.90;;;;;;;18.76;36.13;100697.50;1770993;81;21308;-80
2023/06/04 06:13:15;;;;;;;4.28;1.22;;;;;;;18.83;36.46;100698.33;1769577;81;21312;-81
2023/06/04 06:16:21;;;;;;;3.45;1.00;;;;;;;18.99;36.70;100691.41;1770899;81;21280;-81
2023/06/04 06:19:26;;;;;;;3.98;0.93;;;;;;;19.10;35.85;100705.93;1770814;81;21296;-81
2023/06/04 06:22:32;;;;;;;4.85;1.10;;;;;;;19.10;34.97;100692.07;1770170;81;21974;-80
2023/06/04 06:25:40;;;;;;;4.85;1.30;;;;;;;19.21;35.36;100691.92;1769553;81;21846;-81
2023/06/04 06:28:48;;;;;;;1.55;0.90;;;;;;;19.36;34.37;100704.92;1771169;81;21305;-81
2023/06/04 06:31:55;;;;;;;8.65;1.00;;;;;;;18.98;35.49;100707.19;1770915;81;21855;-81
2023/06/04 06:35:02;;;;;;;10.55;0.80;;;;;;;19.09;35.11;100716.17;1769479;81;21300;-81
2023/06/04 06:38:08;;;;;;;1.60;0.90;;;;;;;19.15;35.34;100686.19;1770832;81;21362;-81
2023/06/04 06:41:15;;;;;;;8.60;1.55;;;;;;;19.28;35.03;100699.63;1771088;81;21363;-80
2023/06/04 06:44:21;;;;;;;5.65;1.12;;;;;;;19.42;34.94;100688.75;1771041;81;21859;-81
2023/06/04 06:47:26;;;;;;;3.92;0.98;;;;;;;19.43;34.31;100704.31;1771013;81;21862;-81
2023/06/04 06:50:35;;;;;;;4.33;0.82;;;;;;;19.61;34.16;100694.70;1769331;81;21300;-81
2023/06/04 06:53:42;;;;;;;4.10;0.83;;;;;;;19.73;33.63;100712.03;1770043;81;21327;-81
2023/06/04 06:56:41;;;;;;;3.35;1.10;;;;;;;19.86;34.04;100699.42;1770851;81;21315;-80
2023/06/04 06:59:47;;;;;;;11.80;0.75;;;;;;;19.92;34.60;100692.95;1771148;81;21284;-81
2023/06/04 07:02:53;;;;;;;1.55;0.70;;;;;;;20.25;33.43;100700.09;1770391;81;21355;-80
2023/06/04 07:05:59;;;;;;;2.33;0.95;;;;;;;20.25;32.07;100705.64;1772287;80;21288;-80
2023/06/04 07:09:09;;;;;;;31.65;1.35;;;;;;;20.33;32.20;100715.92;1784215;80;21316;-80
2023/06/04 07:12:13;;;;;;;2.05;0.80;;;;;;;20.37;32.74;100697.71;1784901;80;21311;-81
2023/06/04 07:15:18;;;;;;;2.10;1.00;;;;;;;20.47;31.93;100714.38;1784787;80;21292;-81
2023/06/04 07:18:24;;;;;;;3.05;1.07;;;;;;;20.51;32.25;100705.35;1784746;80;21283;-80
2023/06/04 07:21:30;;;;;;;4.65;1.32;;;;;;;20.57;31.85;100695.27;1784529;80;21299;-81
2023/06/04 07:24:37;;;;;;;2.67;1.10;;;;;;;20.67;32.52;100706.67;1783749;80;21354;-80
2023/06/04 07:27:42;;;;;;;4.17;0.90;;;;;;;20.40;32.06;100711.66;1784463;80;21295;-81
2023/06/04 07:30:47;;;;;;;2.80;0.75;;;;;;;20.62;32.31;100693.47;1783330;80;21295;-80
2023/06/04 07:33:54;;;;;;;1.45;0.60;;;;;;;20.73;31.23;100709.05;1783107;80;21306;-80
2023/06/04 07:37:00;;;;;;;1.20;0.70;;;;;;;20.74;30.30;100709.35;1784554;80;21295;-80
2023/06/04 07:40:06;;;;;;;1.20;0.65;;;;;;;20.64;30.16;100724.65;1783758;80;21315;-80
2023/06/04 07:43:11;;;;;;;2.45;0.70;;;;;;;20.50;30.56;100705.05;1784275;80;21401;-80
2023/06/04 07:46:21;;;;;;;1.25;0.85;;;;;;;20.67;30.87;100709.45;1784571;80;21857;-81
2023/06/04 07:49:27;;;;;;;1.17;0.70;;;;;;;20.87;30.83;100718.91;1784798;80;21865;-81
2023/06/04 07:52:33;;;;;;;4.92;0.90;;;;;;;21.10;30.29;100737.09;1784607;80;21294;-81
2023/06/04 07:55:39;;;;;;;3.20;0.98;;;;;;;21.15;30.46;100728.05;1784444;80;21300;-82
2023/06/04 07:58:47;;;;;;;3.90;1.05;;;;;;;21.23;30.83;100722.70;1784457;80;21850;-81
2023/06/04 08:01:52;;;;;;;1.65;0.80;;;;;;;21.31;29.96;100747.42;1783290;80;21378;-81
2023/06/04 08:04:58;;;;;;;4.75;0.90;;;;;;;21.10;30.68;100741.27;1783276;80;21335;-81
2023/06/04 08:08:04;;;;;;;1.30;0.70;;;;;;;20.92;31.07;100728.25;1779835;80;21315;-81
2023/06/04 08:11:09;;;;;;;2.30;0.50;;;;;;;21.05;31.00;100723.05;1771403;81;21311;-81
2023/06/04 08:14:15;;;;;;;1.15;0.62;;;;;;;21.12;29.74;100727.96;1770178;81;21307;-81
2023/06/04 08:17:21;;;;;;;0.98;0.70;;;;;;;21.12;30.86;100731.29;1771105;81;21202;-80
2023/06/04 08:20:26;;;;;;;3.80;0.62;;;;;;;21.12;29.57;100733.53;1770846;81;21328;-81
2023/06/04 08:23:31;;;;;;;2.22;0.98;;;;;;;21.29;30.60;100723.98;1770658;81;21351;-81
2023/06/04 08:26:38;;;;;;;4.65;0.90;;;;;;;21.41;30.47;100719.89;1770908;81;22010;-81
2023/06/04 08:29:44;;;;;;;4.28;0.60;;;;;;;21.45;30.78;100709.95;1770954;81;21966;-80
2023/06/04 08:32:51;;;;;;;6.37;0.90;;;;;;;21.49;30.75;100740.40;1770876;81;21288;-80
2023/06/04 08:35:50;;;;;;;3.20;0.90;;;;;;;21.45;29.70;100707.17;1769517;81;21322;-81
2023/06/04 08:38:56;;;;;;;3.20;1.05;;;;;;;21.51;29.05;100709.03;1770399;81;21870;-81
2023/06/04 08:42:07;;;;;;;5.25;0.60;;;;;;;21.64;29.91;100717.68;1770372;81;21305;-81
2023/06/04 08:45:17;;;;;;;6.33;0.98;;;;;;;21.68;29.17;100718.36;1769599;81;21324;-80
2023/06/04 08:48:24;;;;;;;1.25;0.60;;;;;;;21.72;28.79;100737.38;1770807;81;21296;-81
2023/06/04 08:51:29;;;;;;;2.65;1.25;;;;;;;21.55;28.72;100703.29;1770826;81;21292;-82
2023/06/04 08:54:34;;;;;;;2.72;0.65;;;;;;;21.52;28.60;100705.15;1770454;81;21299;-81
2023/06/04 08:57:40;;;;;;;4.22;0.85;;;;;;;21.47;29.19;100717.54;1770948;81;21331;-81
2023/06/04 09:00:47;;;;;;;5.62;0.90;;;;;;;21.38;29.33;100720.36;1770877;81;21295;-81
2023/06/04 09:03:53;;;;;;;3.98;0.65;;;;;;;21.55;28.70;100710.25;1770969;81;21331;-80
2023/06/04 09:07:00;;;;;;;1.75;0.70;;;;;;;21.75;28.28;100709.06;1770924;81;21300;-80
2023/06/04 09:10:05;;;;;;;5.08;0.72;;;;;;;21.82;28.30;100722.31;1774182;80;21377;-80
2023/06/04 09:13:14;;;;;;;7.97;0.78;;;;;;;21.85;29.20;100714.33;1784616;80;21866;-80
2023/06/04 09:16:20;;;;;;;4.62;0.80;;;;;;;21.90;28.42;100710.28;1770889;80;21315;-80
2023/06/04 09:19:27;;;;;;;1.92;0.60;;;;;;;21.97;29.05;100714.33;1784656;80;21292;-80
2023/06/04 09:22:43;;;;;;;3.52;0.68;;;;;;;22.07;27.20;100714.59;1784708;80;21299;-80
2023/06/04 09:25:51;;;;;;;10.70;0.80;;;;;;;21.95;27.02;100729.89;1784418;80;21338;-81
2023/06/04 09:28:52;;;;;;;2.62;0.50;;;;;;;22.03;26.99;100707.80;1784648;80;21288;-80
2023/06/04 09:31:44;;;;;;;1.17;0.70;;;;;;;21.99;28.49;100726.64;1783862;80;21335;-80
2023/06/04 09:34:31;;;;;;;6.62;1.05;;;;;;;22.07;27.47;100702.61;1784655;80;21830;-81
2023/06/04 09:37:24;;;;;;;3.90;0.90;;;;;;;22.03;27.96;100707.80;1783267;80;21303;-80
2023/06/04 09:40:29;;;;;;;2.65;0.60;;;;;;;21.99;27.36;100685.70;1784928;80;21859;-80
2023/06/04 09:43:36;;;;;;;0.55;0.40;;;;;;;22.10;28.28;100700.70;1784639;80;21890;-80
2023/06/04 09:46:42;;;;;;;5.72;0.75;;;;;;;22.11;25.92;100687.08;1784067;80;21345;-81
2023/06/04 09:49:54;;;;;;;4.28;0.80;;;;;;;22.12;27.46;100700.81;1784652;80;21637;-81
2023/06/04 09:53:00;;;;;;;1.15;0.47;;;;;;;22.13;26.37;100697.48;1784595;80;21312;-80
2023/06/04 09:56:10;;;;;;;5.17;0.93;;;;;;;22.03;25.81;100693.04;1783153;80;21862;-80
2023/06/04 09:59:17;;;;;;;1.17;0.60;;;;;;;21.92;26.62;100692.80;1784893;80;22128;-80
2023/06/04 10:02:27;;;;;;;1.32;0.90;;;;;;;22.04;26.42;100688.61;1783360;80;21908;-81
2023/06/04 10:05:37;;;;;;;2.10;0.70;;;;;;;21.99;26.49;100689.04;1785298;80;21359;-80
2023/06/04 10:08:39;;;;;;;1.95;0.95;;;;;;;22.29;26.24;100683.34;1784761;80;21941;-81
2023/06/04 10:11:59;;;;;;;1.72;0.57;;;;;;;22.40;26.42;100688.06;1783421;80;21866;-82
2023/06/04 10:15:08;;;;;;;0.65;0.60;;;;;;;22.52;25.98;100689.42;1784726;80;21284;-82
2023/06/04 10:18:14;;;;;;;3.65;0.72;;;;;;;22.75;26.89;100680.14;1783431;80;21329;-80
2023/06/04 10:21:22;;;;;;;1.30;0.70;;;;;;;22.85;26.24;100691.50;1784753;80;21288;-81
2023/06/04 10:24:28;;;;;;;1.10;0.60;;;;;;;22.83;26.28;100686.73;1784681;80;21307;-81
2023/06/04 10:27:37;;;;;;;1.75;0.62;;;;;;;22.62;26.42;100682.66;1784608;80;21293;-80
2023/06/04 10:30:41;;;;;;;3.20;0.60;;;;;;;22.79;26.58;100676.61;1784603;80;21885;-80
2023/06/04 10:33:48;;;;;;;4.37;0.60;;;;;;;22.76;25.78;100679.04;1784802;80;21283;-80
2023/06/04 10:36:55;;;;;;;1.47;0.90;;;;;;;22.89;26.83;100667.63;1783462;80;21292;-80
2023/06/04 10:40:05;;;;;;;2.33;0.80;;;;;;;22.97;26.21;100664.45;1784720;80;21295;-80
2023/06/04 10:43:17;;;;;;;1.67;0.70;;;;;;;22.97;24.64;100665.84;1783191;80;21310;-80
2023/06/04 10:46:24;;;;;;;1.25;0.90;;;;;;;23.11;25.95;100668.63;1783977;80;21351;-80
2023/06/04 10:49:37;;;;;;;6.72;0.53;;;;;;;23.36;25.93;100670.18;1784659;80;21288;-80
2023/06/04 10:52:43;;;;;;;2.20;0.80;;;;;;;23.46;25.83;100656.39;1784566;80;21331;-80
2023/06/04 10:55:55;;;;;;;2.15;0.80;;;;;;;23.44;25.55;100668.38;1783212;80;21303;-80
2023/06/04 10:59:01;;;;;;;0.70;0.40;;;;;;;23.48;25.77;100665.38;1784742;80;21283;-80
2023/06/04 11:02:17;;;;;;;2.98;0.62;;;;;;;23.58;25.92;100677.27;1783211;80;21343;-80
2023/06/04 11:05:22;;;;;;;5.40;0.60;;;;;;;23.58;24.98;100661.36;1783028;80;21287;-81
2023/06/04 11:08:40;;;;;;;5.25;0.78;;;;;;;23.33;25.21;100670.67;1785112;80;21232;-80
2023/06/04 11:11:44;;;;;;;2.98;0.60;;;;;;;23.46;24.90;100675.94;1784028;80;21287;-80
2023/06/04 11:15:04;;;;;;;7.30;0.50;;;;;;;23.56;26.06;100656.56;1784683;80;21834;-81
2023/06/04 11:18:11;;;;;;;3.90;0.80;;;;;;;23.64;25.69;100660.36;1784285;80;21323;-81
2023/06/04 11:21:14;;;;;;;2.47;0.70;;;;;;;23.83;25.16;100694.46;1784539;80;21303;-81
2023/06/04 11:24:08;;;;;;;2.87;0.57;;;;;;;23.81;25.31;100665.11;1784457;80;21267;-81
2023/06/04 11:27:14;;;;;;;1.82;0.60;;;;;;;23.55;25.36;100667.44;1783694;80;21327;-80
2023/06/04 11:30:22;;;;;;;0.95;0.70;;;;;;;23.49;26.80;100662.88;1784681;80;21279;-81
2023/06/04 11:33:21;;;;;;;3.95;0.60;;;;;;;23.45;25.70;100665.32;1783604;80;21308;-81
2023/06/04 11:36:13;;;;;;;2.12;0.70;;;;;;;23.42;24.80;100658.00;1783348;80;21276;-81
2023/06/04 11:39:18;;;;;;;2.08;0.75;;;;;;;23.50;25.00;100666.52;1784650;80;21347;-80
2023/06/04 11:42:23;;;;;;;2.58;0.50;;;;;;;23.57;25.81;100656.88;1784419;80;21290;-80
2023/06/04 11:45:34;;;;;;;1.67;0.70;;;;;;;23.63;24.64;100653.06;1784234;80;21299;-81
2023/06/04 11:48:37;;;;;;;3.17;0.72;;;;;;;23.76;25.11;100663.08;1783812;80;21949;-81
2023/06/04 11:51:44;;;;;;;1.77;0.60;;;;;;;23.87;24.89;100662.12;1783516;80;21307;-80
2023/06/04 11:54:51;;;;;;;7.05;0.65;;;;;;;23.86;25.55;100658.20;1782738;80;21322;-81
2023/06/04 11:57:56;;;;;;;3.45;0.60;;;;;;;23.81;25.74;100655.34;1783142;80;21283;-81
2023/06/04 12:01:03;;;;;;;1.72;0.70;;;;;;;23.87;25.26;100669.67;1783645;80;21354;-81
2023/06/04 12:04:09;;;;;;;0.88;0.65;;;;;;;23.90;25.12;100649.06;1784026;80;21351;-81
2023/06/04 12:07:14;;;;;;;1.80;0.85;;;;;;;24.01;25.45;100659.83;1740065;80;21330;-81
2023/06/04 12:10:20;;;;;;;7.45;0.72;;;;;;;23.65;24.90;100654.23;1784534;80;21292;-80
2023/06/04 12:13:25;;;;;;;1.25;0.70;;;;;;;23.82;24.92;100647.24;1779875;80;21312;-81
2023/06/04 12:16:32;;;;;;;5.65;0.65;;;;;;;23.18;25.67;100656.74;1771009;81;21307;-80
2023/06/04 12:19:37;;;;;;;4.45;0.70;;;;;;;23.21;25.10;100655.41;1770222;81;21354;-80
2023/06/04 12:22:48;;;;;;;1.55;0.50;;;;;;;23.19;24.92;100655.64;1769974;81;21319;-80
2023/06/04 12:26:00;;;;;;;2.17;0.50;;;;;;;23.18;24.86;100655.34;1759690;81;21307;-80
2023/06/04 12:29:19;;;;;;;0.65;0.50;;;;;;;23.24;25.19;100648.46;1771670;81;21332;-81
2023/06/04 12:32:26;;;;;;;2.12;0.55;;;;;;;23.34;25.47;100645.88;1739715;82;21313;-81
2023/06/04 12:35:32;;;;;;;4.03;0.70;;;;;;;23.42;24.40;100649.63;1738668;82;21330;-80
2023/06/04 12:38:37;;;;;;;1.07;0.57;;;;;;;23.34;24.76;100650.06;1739474;82;21298;-80
2023/06/04 12:41:45;;;;;;;3.80;0.50;;;;;;;23.28;25.24;100644.91;1740565;82;21325;-80
2023/06/04 12:44:50;;;;;;;0.88;0.60;;;;;;;23.32;25.13;100639.12;1740428;82;21872;-80
2023/06/04 12:47:56;;;;;;;1.02;0.60;;;;;;;23.38;26.08;100649.30;1738982;82;21357;-80
2023/06/04 12:51:02;;;;;;;5.30;1.10;;;;;;;23.31;25.04;100641.63;1739131;82;21282;-81
2023/06/04 12:54:07;;;;;;;1.80;0.90;;;;;;;23.33;25.61;100646.95;1740417;82;21333;-80
2023/06/04 12:57:12;;;;;;;0.62;0.50;;;;;;;23.44;25.91;100644.65;1740617;82;21328;-80
2023/06/04 13:00:17;;;;;;;9.78;1.15;;;;;;;23.44;25.54;100654.42;1740433;82;21321;-81
2023/06/04 13:03:24;;;;;;;3.40;0.60;;;;;;;23.53;23.48;100654.30;1740562;82;21309;-81
2023/06/04 13:06:30;;;;;;;2.33;0.75;;;;;;;23.33;24.60;100642.77;1740563;82;21298;-80
2023/06/04 13:09:37;;;;;;;2.30;0.80;;;;;;;23.50;23.79;100649.20;1739122;82;21338;-80
2023/06/04 13:12:43;;;;;;;0.90;0.60;;;;;;;23.55;24.69;100633.94;1740264;82;21302;-81
2023/06/04 13:15:50;;;;;;;9.93;0.70;;;;;;;23.75;24.65;100640.97;1733702;82;21908;-81
2023/06/04 13:18:55;;;;;;;3.05;0.62;;;;;;;23.89;24.53;100636.72;1749863;82;21296;-81
2023/06/04 13:22:01;;;;;;;1.17;0.50;;;;;;;23.82;24.44;100632.73;1750751;82;21301;-81
2023/06/04 13:25:07;;;;;;;1.35;0.50;;;;;;;23.80;24.57;100641.05;1749942;82;21361;-80
2023/06/04 13:28:15;;;;;;;1.02;0.60;;;;;;;23.91;25.07;100635.94;1750039;82;21364;-81
2023/06/04 13:31:20;;;;;;;4.75;0.70;;;;;;;23.88;24.08;100635.03;1750562;82;21297;-81
2023/06/04 13:34:26;;;;;;;3.05;0.70;;;;;;;23.89;24.28;100622.75;1750557;82;21293;-81
2023/06/04 13:37:32;;;;;;;2.92;0.70;;;;;;;23.88;23.31;100623.86;1750480;82;21344;-81
2023/06/04 13:40:38;;;;;;;0.70;0.70;;;;;;;23.96;24.21;100636.00;1749995;82;21923;-80
2023/06/04 13:43:45;;;;;;;1.27;0.65;;;;;;;23.92;24.14;100638.45;1750562;82;21309;-81
2023/06/04 13:46:51;;;;;;;2.08;0.50;;;;;;;23.76;23.39;100631.48;1750593;82;21309;-80
2023/06/04 13:49:56;;;;;;;4.85;0.70;;;;;;;23.65;24.00;100627.14;1749379;82;21927;-80
2023/06/04 13:53:02;;;;;;;1.37;0.62;;;;;;;23.79;24.74;100622.61;1749165;82;21304;-81
2023/06/04 13:56:08;;;;;;;1.47;0.50;;;;;;;23.86;24.25;100614.91;1749643;82;21376;-81
2023/06/04 13:59:14;;;;;;;1.52;0.70;;;;;;;23.84;23.89;100625.48;1749721;82;21855;-80
2023/06/04 14:02:21;;;;;;;1.25;0.60;;;;;;;23.86;24.20;100624.13;1750541;82;21310;-81
2023/06/04 14:05:27;;;;;;;2.85;0.62;;;;;;;23.76;24.59;100622.59;1750438;82;21367;-80
2023/06/04 14:08:33;;;;;;;4.67;0.60;;;;;;;23.70;24.68;100625.83;1750526;82;21979;-81
2023/06/04 14:11:39;;;;;;;1.12;0.50;;;;;;;23.75;23.47;100622.27;1749423;82;21904;-80
2023/06/04 14:14:46;;;;;;;1.47;0.70;;;;;;;23.64;24.18;100631.60;1749115;82;21320;-82
2023/06/04 14:17:53;;;;;;;0.90;0.70;;;;;;;23.66;23.86;100621.84;1753381;82;21321;-81
2023/06/04 14:20:59;;;;;;;3.10;0.95;;;;;;;23.66;23.98;100628.83;1757877;80;21303;-81
2023/06/04 14:24:08;;;;;;;5.25;0.60;;;;;;;23.60;23.86;100619.21;1783942;80;21288;-81